X  Schlie├čen Metar Luftfahrt Wetterdaten     EHVK Volkel Air Base
Temperatur
3°C Temperatur
1°C Taupunkt
87% Feuchtigkeit



Wind
24 KM/H
15 MPH
7 M/S
13 KTS



230°
SW
Aktuelle Wetterlage

Leicht  Regen, Leicht  Nieseln Leicht Regen, Leicht Nieseln
Luftdruck 1008.92 (hPa) - 29.79 (inHg)
Sichtweite 6.2 (Meile) - 10 (km)
Flughafen
Flughafen Code EHVK

Position : Volkel Air Base
Entfernung: 28 (km)

Metar:
EHVK 251934Z AUTO 23013KT 9999 -RADZ FEW013 BKN028 OVC032 03/01 Q1009 BLU

Zeit: 25-01-2021 20:34 CET